sensor_id;sensor_type;location;lat;lon;timestamp;pressure;altitude;pressure_sealevel;temperature;humidity
34297;BME280;20564;42.902;25.336;2022-10-16T00:01:23;97981.00;;;6.01;100.00
34297;BME280;20564;42.902;25.336;2022-10-16T00:03:51;97984.38;;;6.03;100.00
34297;BME280;20564;42.902;25.336;2022-10-16T00:06:20;97986.41;;;5.98;99.88
34297;BME280;20564;42.902;25.336;2022-10-16T00:08:49;97979.59;;;5.96;100.00
34297;BME280;20564;42.902;25.336;2022-10-16T00:11:29;97979.69;;;5.94;100.00
34297;BME280;20564;42.902;25.336;2022-10-16T00:14:00;97988.63;;;5.90;100.00
34297;BME280;20564;42.902;25.336;2022-10-16T00:16:28;97983.00;;;5.82;100.00
34297;BME280;20564;42.902;25.336;2022-10-16T00:18:56;97988.31;;;5.80;100.00
34297;BME280;20564;42.902;25.336;2022-10-16T00:21:26;98001.31;;;5.82;100.00
34297;BME280;20564;42.902;25.336;2022-10-16T00:23:59;97988.50;;;5.77;100.00
34297;BME280;20564;42.902;25.336;2022-10-16T00:26:28;98000.16;;;5.72;100.00
34297;BME280;20564;42.902;25.336;2022-10-16T00:28:56;97997.16;;;5.64;100.00
34297;BME280;20564;42.902;25.336;2022-10-16T00:31:24;98002.94;;;5.69;100.00
34297;BME280;20564;42.902;25.336;2022-10-16T00:33:51;98001.09;;;5.71;100.00
34297;BME280;20564;42.902;25.336;2022-10-16T00:36:20;98005.38;;;5.72;100.00
34297;BME280;20564;42.902;25.336;2022-10-16T00:38:54;98009.09;;;5.68;100.00
34297;BME280;20564;42.902;25.336;2022-10-16T00:41:23;98017.00;;;5.66;100.00
34297;BME280;20564;42.902;25.336;2022-10-16T00:43:59;98017.63;;;5.55;100.00
34297;BME280;20564;42.902;25.336;2022-10-16T00:46:38;98015.03;;;5.55;100.00
34297;BME280;20564;42.902;25.336;2022-10-16T00:49:12;98024.63;;;5.55;100.00
34297;BME280;20564;42.902;25.336;2022-10-16T00:51:51;98028.06;;;5.55;100.00
34297;BME280;20564;42.902;25.336;2022-10-16T00:54:27;98036.00;;;5.54;100.00
34297;BME280;20564;42.902;25.336;2022-10-16T00:56:59;98025.06;;;5.47;100.00
34297;BME280;20564;42.902;25.336;2022-10-16T00:59:30;98029.56;;;5.45;100.00
34297;BME280;20564;42.902;25.336;2022-10-16T01:01:58;98034.13;;;5.42;100.00
34297;BME280;20564;42.902;25.336;2022-10-16T01:04:31;98029.91;;;5.39;100.00
34297;BME280;20564;42.902;25.336;2022-10-16T01:09:57;98035.47;;;5.33;100.00
34297;BME280;20564;42.902;25.336;2022-10-16T01:12:54;98041.03;;;5.27;100.00
34297;BME280;20564;42.902;25.336;2022-10-16T01:15:37;98032.59;;;5.22;100.00
34297;BME280;20564;42.902;25.336;2022-10-16T01:18:16;98032.78;;;5.19;100.00
34297;BME280;20564;42.902;25.336;2022-10-16T01:20:51;98030.53;;;5.13;100.00
34297;BME280;20564;42.902;25.336;2022-10-16T01:23:37;98037.59;;;5.11;100.00
34297;BME280;20564;42.902;25.336;2022-10-16T01:28:54;98037.84;;;5.06;100.00
34297;BME280;20564;42.902;25.336;2022-10-16T01:31:27;98035.31;;;5.04;100.00
34297;BME280;20564;42.902;25.336;2022-10-16T01:34:03;98037.25;;;5.01;100.00
34297;BME280;20564;42.902;25.336;2022-10-16T01:36:52;98043.56;;;4.97;100.00
34297;BME280;20564;42.902;25.336;2022-10-16T01:39:22;98034.66;;;4.85;100.00
34297;BME280;20564;42.902;25.336;2022-10-16T01:41:55;98030.09;;;4.89;100.00
34297;BME280;20564;42.902;25.336;2022-10-16T01:44:29;98044.00;;;4.89;100.00
34297;BME280;20564;42.902;25.336;2022-10-16T01:46:59;98042.16;;;4.91;100.00
34297;BME280;20564;42.902;25.336;2022-10-16T01:49:31;98037.09;;;4.88;100.00
34297;BME280;20564;42.902;25.336;2022-10-16T01:52:02;98053.59;;;4.89;100.00
34297;BME280;20564;42.902;25.336;2022-10-16T01:54:32;98040.63;;;4.87;100.00
34297;BME280;20564;42.902;25.336;2022-10-16T01:57:02;98047.84;;;4.82;100.00
34297;BME280;20564;42.902;25.336;2022-10-16T01:59:33;98041.91;;;4.80;100.00
34297;BME280;20564;42.902;25.336;2022-10-16T02:02:06;98044.41;;;4.81;100.00
34297;BME280;20564;42.902;25.336;2022-10-16T02:04:39;98047.28;;;4.77;100.00
34297;BME280;20564;42.902;25.336;2022-10-16T02:07:09;98039.56;;;4.75;100.00
34297;BME280;20564;42.902;25.336;2022-10-16T02:09:36;98050.81;;;4.76;100.00
34297;BME280;20564;42.902;25.336;2022-10-16T02:12:24;98042.22;;;4.74;100.00
34297;BME280;20564;42.902;25.336;2022-10-16T02:14:53;98043.72;;;4.62;100.00
34297;BME280;20564;42.902;25.336;2022-10-16T02:17:21;98051.63;;;4.60;100.00
34297;BME280;20564;42.902;25.336;2022-10-16T02:19:50;98052.66;;;4.58;99.91
34297;BME280;20564;42.902;25.336;2022-10-16T02:22:28;98058.84;;;4.55;100.00
34297;BME280;20564;42.902;25.336;2022-10-16T02:25:05;98054.63;;;4.53;99.68
34297;BME280;20564;42.902;25.336;2022-10-16T02:27:38;98053.94;;;4.49;100.00
34297;BME280;20564;42.902;25.336;2022-10-16T02:30:13;98055.81;;;4.47;100.00
34297;BME280;20564;42.902;25.336;2022-10-16T02:32:43;98058.47;;;4.46;100.00
34297;BME280;20564;42.902;25.336;2022-10-16T02:35:12;98060.41;;;4.42;100.00
34297;BME280;20564;42.902;25.336;2022-10-16T02:37:40;98045.72;;;4.41;100.00
34297;BME280;20564;42.902;25.336;2022-10-16T02:40:08;98059.50;;;4.43;100.00
34297;BME280;20564;42.902;25.336;2022-10-16T02:42:38;98066.66;;;4.40;100.00
34297;BME280;20564;42.902;25.336;2022-10-16T02:45:07;98061.66;;;4.35;100.00
34297;BME280;20564;42.902;25.336;2022-10-16T02:47:38;98069.31;;;4.38;100.00
34297;BME280;20564;42.902;25.336;2022-10-16T02:50:05;98069.47;;;4.35;99.07
34297;BME280;20564;42.902;25.336;2022-10-16T02:52:32;98063.66;;;4.30;99.61
34297;BME280;20564;42.902;25.336;2022-10-16T02:55:00;98073.16;;;4.31;100.00
34297;BME280;20564;42.902;25.336;2022-10-16T02:57:27;98067.66;;;4.20;100.00
34297;BME280;20564;42.902;25.336;2022-10-16T02:59:54;98071.03;;;4.22;100.00
34297;BME280;20564;42.902;25.336;2022-10-16T03:02:22;98082.22;;;4.24;100.00
34297;BME280;20564;42.902;25.336;2022-10-16T03:04:49;98077.94;;;4.23;100.00
34297;BME280;20564;42.902;25.336;2022-10-16T03:07:16;98079.78;;;4.21;100.00
34297;BME280;20564;42.902;25.336;2022-10-16T03:09:44;98084.13;;;4.20;99.90
34297;BME280;20564;42.902;25.336;2022-10-16T03:12:11;98069.69;;;4.15;100.00
34297;BME280;20564;42.902;25.336;2022-10-16T03:14:38;98084.81;;;4.24;100.00
34297;BME280;20564;42.902;25.336;2022-10-16T03:17:07;98083.25;;;4.21;99.41
34297;BME280;20564;42.902;25.336;2022-10-16T03:19:34;98091.22;;;4.18;99.88
34297;BME280;20564;42.902;25.336;2022-10-16T03:22:20;98091.22;;;4.18;98.95
34297;BME280;20564;42.902;25.336;2022-10-16T03:24:47;98089.00;;;4.10;98.97
34297;BME280;20564;42.902;25.336;2022-10-16T03:27:14;98085.47;;;4.11;98.72
34297;BME280;20564;42.902;25.336;2022-10-16T03:29:41;98084.69;;;4.09;100.00
34297;BME280;20564;42.902;25.336;2022-10-16T03:32:08;98080.41;;;4.08;99.99
34297;BME280;20564;42.902;25.336;2022-10-16T03:34:36;98082.41;;;4.03;99.46
34297;BME280;20564;42.902;25.336;2022-10-16T03:37:03;98092.75;;;4.05;99.47
34297;BME280;20564;42.902;25.336;2022-10-16T03:39:30;98089.59;;;3.98;99.55
34297;BME280;20564;42.902;25.336;2022-10-16T03:41:57;98087.91;;;3.97;100.00
34297;BME280;20564;42.902;25.336;2022-10-16T03:44:24;98088.91;;;3.95;100.00
34297;BME280;20564;42.902;25.336;2022-10-16T03:46:51;98101.88;;;3.96;99.76
34297;BME280;20564;42.902;25.336;2022-10-16T03:49:19;98097.88;;;3.89;99.77
34297;BME280;20564;42.902;25.336;2022-10-16T03:51:46;98102.03;;;3.93;99.19
34297;BME280;20564;42.902;25.336;2022-10-16T03:54:13;98092.72;;;3.87;99.74
34297;BME280;20564;42.902;25.336;2022-10-16T03:56:40;98108.31;;;3.89;98.78
34297;BME280;20564;42.902;25.336;2022-10-16T03:59:08;98109.22;;;3.88;99.84
34297;BME280;20564;42.902;25.336;2022-10-16T04:01:35;98090.38;;;3.83;99.23
34297;BME280;20564;42.902;25.336;2022-10-16T04:04:05;98102.50;;;3.84;99.19
34297;BME280;20564;42.902;25.336;2022-10-16T04:06:32;98099.25;;;3.79;99.33
34297;BME280;20564;42.902;25.336;2022-10-16T04:08:59;98097.88;;;3.72;99.38
34297;BME280;20564;42.902;25.336;2022-10-16T04:11:26;98108.13;;;3.75;99.64
34297;BME280;20564;42.902;25.336;2022-10-16T04:13:54;98101.41;;;3.71;98.11
34297;BME280;20564;42.902;25.336;2022-10-16T04:16:21;98092.81;;;3.69;98.60
34297;BME280;20564;42.902;25.336;2022-10-16T04:18:48;98101.69;;;3.65;98.79
34297;BME280;20564;42.902;25.336;2022-10-16T04:21:15;98099.22;;;3.61;99.20
34297;BME280;20564;42.902;25.336;2022-10-16T04:23:43;98099.88;;;3.67;99.53
34297;BME280;20564;42.902;25.336;2022-10-16T04:26:10;98105.13;;;3.65;99.28
34297;BME280;20564;42.902;25.336;2022-10-16T04:28:37;98082.22;;;3.54;99.61
34297;BME280;20564;42.902;25.336;2022-10-16T04:31:05;98110.44;;;3.63;99.52
34297;BME280;20564;42.902;25.336;2022-10-16T04:33:33;98103.53;;;3.62;99.24
34297;BME280;20564;42.902;25.336;2022-10-16T04:36:01;98108.91;;;3.59;98.83
34297;BME280;20564;42.902;25.336;2022-10-16T04:38:29;98115.78;;;3.60;98.46
34297;BME280;20564;42.902;25.336;2022-10-16T04:40:56;98114.25;;;3.56;99.75
34297;BME280;20564;42.902;25.336;2022-10-16T04:43:23;98115.22;;;3.54;98.62
34297;BME280;20564;42.902;25.336;2022-10-16T04:45:51;98124.50;;;3.59;98.93
34297;BME280;20564;42.902;25.336;2022-10-16T04:48:18;98131.53;;;3.57;98.45
34297;BME280;20564;42.902;25.336;2022-10-16T04:50:45;98121.44;;;3.51;99.08
34297;BME280;20564;42.902;25.336;2022-10-16T04:53:20;98137.44;;;3.61;98.87
34297;BME280;20564;42.902;25.336;2022-10-16T04:55:47;98137.22;;;3.66;98.93
34297;BME280;20564;42.902;25.336;2022-10-16T04:58:14;98140.75;;;3.65;99.54
34297;BME280;20564;42.902;25.336;2022-10-16T05:00:41;98136.47;;;3.63;98.97
34297;BME280;20564;42.902;25.336;2022-10-16T05:03:09;98129.56;;;3.62;98.97
34297;BME280;20564;42.902;25.336;2022-10-16T05:05:36;98132.94;;;3.65;99.47
34297;BME280;20564;42.902;25.336;2022-10-16T05:08:03;98132.78;;;3.68;99.18
34297;BME280;20564;42.902;25.336;2022-10-16T05:10:31;98136.31;;;3.67;98.61
34297;BME280;20564;42.902;25.336;2022-10-16T05:12:58;98132.00;;;3.66;98.55
34297;BME280;20564;42.902;25.336;2022-10-16T05:15:25;98124.88;;;3.69;99.74
34297;BME280;20564;42.902;25.336;2022-10-16T05:17:55;98129.25;;;3.69;99.44
34297;BME280;20564;42.902;25.336;2022-10-16T05:20:23;98143.75;;;3.74;99.96
34297;BME280;20564;42.902;25.336;2022-10-16T05:22:50;98148.03;;;3.75;99.94
34297;BME280;20564;42.902;25.336;2022-10-16T05:25:17;98151.34;;;3.79;100.00
34297;BME280;20564;42.902;25.336;2022-10-16T05:27:48;98153.88;;;3.80;99.74
34297;BME280;20564;42.902;25.336;2022-10-16T05:30:16;98157.19;;;3.84;100.00
34297;BME280;20564;42.902;25.336;2022-10-16T05:32:49;98157.78;;;3.89;99.49
34297;BME280;20564;42.902;25.336;2022-10-16T05:35:17;98164.66;;;3.90;100.00
34297;BME280;20564;42.902;25.336;2022-10-16T05:37:44;98155.63;;;3.97;100.00
34297;BME280;20564;42.902;25.336;2022-10-16T05:40:12;98160.41;;;4.06;99.74
34297;BME280;20564;42.902;25.336;2022-10-16T05:42:40;98166.06;;;4.15;100.00
34297;BME280;20564;42.902;25.336;2022-10-16T05:45:09;98171.88;;;4.20;100.00
34297;BME280;20564;42.902;25.336;2022-10-16T05:47:37;98167.16;;;4.28;100.00
34297;BME280;20564;42.902;25.336;2022-10-16T05:50:05;98176.19;;;4.38;100.00
34297;BME280;20564;42.902;25.336;2022-10-16T05:52:32;98171.81;;;4.39;100.00
34297;BME280;20564;42.902;25.336;2022-10-16T05:54:59;98170.81;;;4.41;100.00
34297;BME280;20564;42.902;25.336;2022-10-16T05:57:27;98179.78;;;4.53;100.00
34297;BME280;20564;42.902;25.336;2022-10-16T05:59:54;98175.09;;;4.59;100.00
34297;BME280;20564;42.902;25.336;2022-10-16T06:02:22;98183.34;;;4.68;100.00
34297;BME280;20564;42.902;25.336;2022-10-16T06:04:49;98177.53;;;4.80;100.00
34297;BME280;20564;42.902;25.336;2022-10-16T06:07:20;98182.53;;;5.00;100.00
34297;BME280;20564;42.902;25.336;2022-10-16T06:09:51;98185.00;;;5.19;100.00
34297;BME280;20564;42.902;25.336;2022-10-16T06:12:19;98189.97;;;5.40;100.00
34297;BME280;20564;42.902;25.336;2022-10-16T06:14:47;98179.97;;;5.64;100.00
34297;BME280;20564;42.902;25.336;2022-10-16T06:17:15;98183.81;;;5.88;100.00
34297;BME280;20564;42.902;25.336;2022-10-16T06:19:42;98179.09;;;6.11;100.00
34297;BME280;20564;42.902;25.336;2022-10-16T06:22:09;98192.66;;;6.47;100.00
34297;BME280;20564;42.902;25.336;2022-10-16T06:24:36;98192.66;;;6.76;100.00
34297;BME280;20564;42.902;25.336;2022-10-16T06:27:04;98192.50;;;7.08;100.00
34297;BME280;20564;42.902;25.336;2022-10-16T06:29:31;98191.84;;;7.33;100.00
34297;BME280;20564;42.902;25.336;2022-10-16T06:31:59;98192.00;;;7.58;100.00
34297;BME280;20564;42.902;25.336;2022-10-16T06:34:26;98199.47;;;7.91;100.00
34297;BME280;20564;42.902;25.336;2022-10-16T06:36:53;98208.16;;;8.19;100.00
34297;BME280;20564;42.902;25.336;2022-10-16T06:39:20;98204.91;;;8.42;100.00
34297;BME280;20564;42.902;25.336;2022-10-16T06:41:47;98213.56;;;8.70;99.05
34297;BME280;20564;42.902;25.336;2022-10-16T06:44:15;98222.59;;;8.91;97.38
34297;BME280;20564;42.902;25.336;2022-10-16T06:46:43;98215.16;;;9.11;96.80
34297;BME280;20564;42.902;25.336;2022-10-16T06:49:10;98207.47;;;9.33;95.37
34297;BME280;20564;42.902;25.336;2022-10-16T06:51:37;98219.59;;;9.60;94.23
34297;BME280;20564;42.902;25.336;2022-10-16T06:54:09;98213.25;;;9.75;94.32
34297;BME280;20564;42.902;25.336;2022-10-16T06:56:36;98220.56;;;9.96;92.81
34297;BME280;20564;42.902;25.336;2022-10-16T06:59:04;98212.03;;;10.16;92.46
34297;BME280;20564;42.902;25.336;2022-10-16T07:01:32;98219.84;;;10.42;91.15
34297;BME280;20564;42.902;25.336;2022-10-16T07:04:01;98220.38;;;10.58;89.48
34297;BME280;20564;42.902;25.336;2022-10-16T07:06:31;98216.81;;;10.70;90.37
34297;BME280;20564;42.902;25.336;2022-10-16T07:09:01;98220.09;;;10.96;88.51
34297;BME280;20564;42.902;25.336;2022-10-16T07:11:28;98223.56;;;10.97;86.80
34297;BME280;20564;42.902;25.336;2022-10-16T07:13:55;98230.81;;;11.17;85.71
34297;BME280;20564;42.902;25.336;2022-10-16T07:16:27;98227.34;;;11.28;84.11
34297;BME280;20564;42.902;25.336;2022-10-16T07:18:56;98224.09;;;11.35;84.59
34297;BME280;20564;42.902;25.336;2022-10-16T07:21:29;98225.06;;;11.57;83.41
34297;BME280;20564;42.902;25.336;2022-10-16T07:23:59;98219.53;;;11.71;81.70
34297;BME280;20564;42.902;25.336;2022-10-16T07:26:30;98227.56;;;11.92;81.66
34297;BME280;20564;42.902;25.336;2022-10-16T07:28:58;98221.66;;;12.11;81.03
34297;BME280;20564;42.902;25.336;2022-10-16T07:31:26;98221.09;;;12.28;79.69
34297;BME280;20564;42.902;25.336;2022-10-16T07:33:57;98215.75;;;12.51;79.83
34297;BME280;20564;42.902;25.336;2022-10-16T07:36:24;98216.59;;;12.72;80.04
34297;BME280;20564;42.902;25.336;2022-10-16T07:38:52;98225.88;;;12.88;78.68
34297;BME280;20564;42.902;25.336;2022-10-16T07:41:26;98216.91;;;13.00;78.58
34297;BME280;20564;42.902;25.336;2022-10-16T07:43:54;98220.63;;;13.18;80.21
34297;BME280;20564;42.902;25.336;2022-10-16T07:46:22;98220.16;;;13.34;77.74
34297;BME280;20564;42.902;25.336;2022-10-16T07:48:50;98220.94;;;13.46;77.28
34297;BME280;20564;42.902;25.336;2022-10-16T07:51:19;98221.53;;;13.59;78.04
34297;BME280;20564;42.902;25.336;2022-10-16T07:53:47;98220.47;;;13.71;77.30
34297;BME280;20564;42.902;25.336;2022-10-16T07:56:15;98213.56;;;13.90;76.54
34297;BME280;20564;42.902;25.336;2022-10-16T07:58:43;98213.03;;;14.15;76.19
34297;BME280;20564;42.902;25.336;2022-10-16T08:01:14;98219.88;;;14.28;75.31
34297;BME280;20564;42.902;25.336;2022-10-16T08:03:47;98208.88;;;14.42;73.80
34297;BME280;20564;42.902;25.336;2022-10-16T08:06:15;98209.03;;;14.50;70.39
34297;BME280;20564;42.902;25.336;2022-10-16T08:08:42;98204.56;;;14.60;70.96
34297;BME280;20564;42.902;25.336;2022-10-16T08:11:09;98206.09;;;14.73;70.34
34297;BME280;20564;42.902;25.336;2022-10-16T08:13:37;98206.63;;;14.76;68.17
34297;BME280;20564;42.902;25.336;2022-10-16T08:16:04;98204.41;;;14.71;68.83
34297;BME280;20564;42.902;25.336;2022-10-16T08:18:36;98212.50;;;14.80;68.46
34297;BME280;20564;42.902;25.336;2022-10-16T08:21:04;98210.50;;;15.01;65.57
34297;BME280;20564;42.902;25.336;2022-10-16T08:23:32;98212.16;;;15.02;65.07
34297;BME280;20564;42.902;25.336;2022-10-16T08:26:07;98205.13;;;14.74;62.70
34297;BME280;20564;42.902;25.336;2022-10-16T08:28:35;98210.28;;;14.65;61.08
34297;BME280;20564;42.902;25.336;2022-10-16T08:31:07;98204.53;;;14.80;61.27
34297;BME280;20564;42.902;25.336;2022-10-16T08:33:34;98209.41;;;14.94;60.64
34297;BME280;20564;42.902;25.336;2022-10-16T08:36:03;98203.00;;;14.87;57.58
34297;BME280;20564;42.902;25.336;2022-10-16T08:38:32;98207.19;;;14.80;56.09
34297;BME280;20564;42.902;25.336;2022-10-16T08:41:10;98207.19;;;14.80;56.00
34297;BME280;20564;42.902;25.336;2022-10-16T08:47:08;98206.31;;;14.99;56.99
34297;BME280;20564;42.902;25.336;2022-10-16T08:49:40;98200.94;;;15.28;58.00
34297;BME280;20564;42.902;25.336;2022-10-16T08:52:12;98204.56;;;15.27;56.46
34297;BME280;20564;42.902;25.336;2022-10-16T08:54:47;98207.94;;;15.29;57.04
34297;BME280;20564;42.902;25.336;2022-10-16T08:57:21;98205.09;;;15.40;56.48
34297;BME280;20564;42.902;25.336;2022-10-16T08:59:51;98207.66;;;15.59;57.27
34297;BME280;20564;42.902;25.336;2022-10-16T09:02:27;98212.88;;;15.79;56.33
34297;BME280;20564;42.902;25.336;2022-10-16T09:05:19;98210.31;;;15.69;54.72
34297;BME280;20564;42.902;25.336;2022-10-16T09:08:01;98211.06;;;15.79;55.25
34297;BME280;20564;42.902;25.336;2022-10-16T09:18:59;98212.81;;;15.71;52.88
34297;BME280;20564;42.902;25.336;2022-10-16T09:21:35;98211.97;;;15.70;54.01
34297;BME280;20564;42.902;25.336;2022-10-16T09:24:15;98218.94;;;15.71;54.10
34297;BME280;20564;42.902;25.336;2022-10-16T09:26:43;98203.06;;;15.61;52.59
34297;BME280;20564;42.902;25.336;2022-10-16T09:29:12;98206.00;;;15.58;54.98
34297;BME280;20564;42.902;25.336;2022-10-16T09:31:40;98202.00;;;15.44;54.20
34297;BME280;20564;42.902;25.336;2022-10-16T09:34:34;98204.38;;;15.48;53.71
34297;BME280;20564;42.902;25.336;2022-10-16T09:37:11;98213.34;;;15.64;52.70
34297;BME280;20564;42.902;25.336;2022-10-16T09:39:48;98208.03;;;15.64;53.83
34297;BME280;20564;42.902;25.336;2022-10-16T09:42:30;98211.44;;;15.66;52.18
34297;BME280;20564;42.902;25.336;2022-10-16T09:44:58;98199.97;;;15.56;53.46
34297;BME280;20564;42.902;25.336;2022-10-16T09:47:27;98201.75;;;15.38;53.65
34297;BME280;20564;42.902;25.336;2022-10-16T09:50:04;98202.78;;;15.55;53.36
34297;BME280;20564;42.902;25.336;2022-10-16T09:52:33;98193.16;;;15.54;52.72
34297;BME280;20564;42.902;25.336;2022-10-16T09:55:09;98201.91;;;15.74;52.68
34297;BME280;20564;42.902;25.336;2022-10-16T09:57:55;98199.91;;;15.76;51.44
34297;BME280;20564;42.902;25.336;2022-10-16T10:00:23;98193.47;;;15.78;51.05
34297;BME280;20564;42.902;25.336;2022-10-16T10:02:51;98190.38;;;15.83;50.63
34297;BME280;20564;42.902;25.336;2022-10-16T10:05:26;98195.47;;;15.94;52.95
34297;BME280;20564;42.902;25.336;2022-10-16T10:07:58;98187.22;;;15.97;49.72
34297;BME280;20564;42.902;25.336;2022-10-16T10:10:28;98188.97;;;16.06;50.77
34297;BME280;20564;42.902;25.336;2022-10-16T10:12:56;98186.91;;;16.00;49.52
34297;BME280;20564;42.902;25.336;2022-10-16T10:15:24;98183.06;;;16.12;51.38
34297;BME280;20564;42.902;25.336;2022-10-16T10:17:52;98179.97;;;16.17;50.81
34297;BME280;20564;42.902;25.336;2022-10-16T10:22:52;98169.47;;;16.15;49.59
34297;BME280;20564;42.902;25.336;2022-10-16T10:25:48;98168.50;;;16.17;51.46
34297;BME280;20564;42.902;25.336;2022-10-16T10:30:59;98164.94;;;16.26;50.61
34297;BME280;20564;42.902;25.336;2022-10-16T10:39:00;98156.59;;;16.38;52.07
34297;BME280;20564;42.902;25.336;2022-10-16T10:41:35;98159.13;;;16.48;51.86
34297;BME280;20564;42.902;25.336;2022-10-16T10:44:33;98158.44;;;16.64;51.25
34297;BME280;20564;42.902;25.336;2022-10-16T10:47:27;98150.47;;;16.82;50.74
34297;BME280;20564;42.902;25.336;2022-10-16T10:50:25;98164.13;;;16.87;48.80
34297;BME280;20564;42.902;25.336;2022-10-16T10:52:59;98157.97;;;16.86;47.81
34297;BME280;20564;42.902;25.336;2022-10-16T10:55:37;98158.28;;;16.83;48.83
34297;BME280;20564;42.902;25.336;2022-10-16T11:00:50;98151.50;;;16.89;50.18
34297;BME280;20564;42.902;25.336;2022-10-16T11:06:07;98149.41;;;17.01;47.90
34297;BME280;20564;42.902;25.336;2022-10-16T11:11:48;98149.28;;;17.10;49.88
34297;BME280;20564;42.902;25.336;2022-10-16T11:14:31;98148.56;;;17.26;49.16
34297;BME280;20564;42.902;25.336;2022-10-16T11:19:50;98142.03;;;17.21;47.69
34297;BME280;20564;42.902;25.336;2022-10-16T11:22:23;98146.59;;;17.02;48.09
34297;BME280;20564;42.902;25.336;2022-10-16T11:24:59;98143.09;;;16.76;49.35
34297;BME280;20564;42.902;25.336;2022-10-16T11:27:40;98145.16;;;16.82;49.96
34297;BME280;20564;42.902;25.336;2022-10-16T11:30:20;98146.28;;;16.79;50.40
34297;BME280;20564;42.902;25.336;2022-10-16T11:35:55;98146.34;;;16.70;49.87
34297;BME280;20564;42.902;25.336;2022-10-16T11:53:11;98131.34;;;17.13;47.91
34297;BME280;20564;42.902;25.336;2022-10-16T11:55:42;98131.16;;;17.06;47.80
34297;BME280;20564;42.902;25.336;2022-10-16T12:01:03;98137.81;;;17.10;46.14
34297;BME280;20564;42.902;25.336;2022-10-16T12:06:34;98146.63;;;17.10;47.96
34297;BME280;20564;42.902;25.336;2022-10-16T12:09:03;98146.69;;;17.19;47.05
34297;BME280;20564;42.902;25.336;2022-10-16T12:11:31;98149.50;;;17.17;47.52
34297;BME280;20564;42.902;25.336;2022-10-16T12:16:51;98152.44;;;17.06;48.03
34297;BME280;20564;42.902;25.336;2022-10-16T12:19:19;98149.53;;;16.91;48.39
34297;BME280;20564;42.902;25.336;2022-10-16T12:21:46;98151.81;;;16.86;49.39
34297;BME280;20564;42.902;25.336;2022-10-16T12:24:37;98149.31;;;16.84;49.27
34297;BME280;20564;42.902;25.336;2022-10-16T12:27:17;98149.53;;;16.91;49.54
34297;BME280;20564;42.902;25.336;2022-10-16T12:29:46;98138.88;;;16.91;48.32
34297;BME280;20564;42.902;25.336;2022-10-16T12:32:33;98148.25;;;17.03;48.68
34297;BME280;20564;42.902;25.336;2022-10-16T12:35:27;98143.50;;;16.89;48.08
34297;BME280;20564;42.902;25.336;2022-10-16T12:38:05;98149.69;;;16.90;47.68
34297;BME280;20564;42.902;25.336;2022-10-16T12:40:35;98148.31;;;16.85;49.21
34297;BME280;20564;42.902;25.336;2022-10-16T12:43:26;98151.81;;;16.86;48.24
34297;BME280;20564;42.902;25.336;2022-10-16T12:46:19;98156.31;;;16.68;47.56
34297;BME280;20564;42.902;25.336;2022-10-16T12:48:47;98159.50;;;16.71;48.38
34297;BME280;20564;42.902;25.336;2022-10-16T13:12:13;98153.69;;;16.32;47.10
34297;BME280;20564;42.902;25.336;2022-10-16T13:23:14;98163.78;;;16.28;48.60
34297;BME280;20564;42.902;25.336;2022-10-16T13:28:37;98178.06;;;16.27;47.69
34297;BME280;20564;42.902;25.336;2022-10-16T13:31:20;98178.50;;;16.23;47.99
34297;BME280;20564;42.902;25.336;2022-10-16T13:33:50;98179.78;;;16.19;47.61
34297;BME280;20564;42.902;25.336;2022-10-16T13:36:29;98170.16;;;16.18;48.42
34297;BME280;20564;42.902;25.336;2022-10-16T13:39:21;98176.69;;;16.23;47.61
34297;BME280;20564;42.902;25.336;2022-10-16T13:42:10;98177.97;;;16.19;48.77
34297;BME280;20564;42.902;25.336;2022-10-16T13:44:48;98186.63;;;16.21;49.10
34297;BME280;20564;42.902;25.336;2022-10-16T13:47:23;98191.56;;;16.16;49.24
34297;BME280;20564;42.902;25.336;2022-10-16T13:50:01;98189.66;;;16.08;49.00
34297;BME280;20564;42.902;25.336;2022-10-16T13:52:28;98189.97;;;16.05;48.21
34297;BME280;20564;42.902;25.336;2022-10-16T13:54:55;98188.22;;;15.96;50.21
34297;BME280;20564;42.902;25.336;2022-10-16T13:57:27;98189.13;;;15.87;49.06
34297;BME280;20564;42.902;25.336;2022-10-16T13:59:54;98199.03;;;15.85;49.69
34297;BME280;20564;42.902;25.336;2022-10-16T14:02:34;98185.75;;;15.85;52.17
34297;BME280;20564;42.902;25.336;2022-10-16T14:05:08;98198.19;;;15.84;49.65
34297;BME280;20564;42.902;25.336;2022-10-16T14:07:37;98189.91;;;15.70;50.10
34297;BME280;20564;42.902;25.336;2022-10-16T14:10:18;98196.59;;;15.64;51.56
34297;BME280;20564;42.902;25.336;2022-10-16T14:13:04;98198.69;;;15.60;52.72
34297;BME280;20564;42.902;25.336;2022-10-16T14:15:33;98194.69;;;15.56;51.39
34297;BME280;20564;42.902;25.336;2022-10-16T14:18:01;98196.66;;;15.54;50.85
34297;BME280;20564;42.902;25.336;2022-10-16T14:20:33;98201.81;;;15.56;50.11
34297;BME280;20564;42.902;25.336;2022-10-16T14:23:04;98209.50;;;15.49;50.16
34297;BME280;20564;42.902;25.336;2022-10-16T14:25:32;98198.50;;;15.44;50.52
34297;BME280;20564;42.902;25.336;2022-10-16T14:28:19;98203.22;;;15.50;50.60
34297;BME280;20564;42.902;25.336;2022-10-16T14:30:56;98219.28;;;15.49;50.38
34297;BME280;20564;42.902;25.336;2022-10-16T14:33:33;98207.03;;;15.38;49.64
34297;BME280;20564;42.902;25.336;2022-10-16T14:38:39;98230.81;;;15.30;48.97
34297;BME280;20564;42.902;25.336;2022-10-16T14:41:07;98220.78;;;15.24;49.46
34297;BME280;20564;42.902;25.336;2022-10-16T14:43:40;98229.59;;;15.14;51.13
34297;BME280;20564;42.902;25.336;2022-10-16T14:46:19;98224.16;;;15.16;49.92
34297;BME280;20564;42.902;25.336;2022-10-16T14:48:59;98223.31;;;15.15;50.52
34297;BME280;20564;42.902;25.336;2022-10-16T14:51:27;98222.38;;;15.07;51.39
34297;BME280;20564;42.902;25.336;2022-10-16T14:53:54;98225.44;;;15.02;52.13
34297;BME280;20564;42.902;25.336;2022-10-16T14:56:30;98229.50;;;14.87;54.28